sensor_id;sensor_type;location;lat;lon;timestamp;P1;durP1;ratioP1;P2;durP2;ratioP2
55417;SDS011;41287;47.554;7.844;2023-10-08T00:00:23;7.55;;;3.15;;
55417;SDS011;41287;47.554;7.844;2023-10-08T00:03:11;5.97;;;3.03;;
55417;SDS011;41287;47.554;7.844;2023-10-08T00:05:38;5.65;;;2.83;;
55417;SDS011;41287;47.554;7.844;2023-10-08T00:08:07;6.57;;;3.20;;
55417;SDS011;41287;47.554;7.844;2023-10-08T00:10:37;6.57;;;3.15;;
55417;SDS011;41287;47.554;7.844;2023-10-08T00:13:10;6.70;;;3.13;;
55417;SDS011;41287;47.554;7.844;2023-10-08T00:15:41;6.15;;;2.88;;
55417;SDS011;41287;47.554;7.844;2023-10-08T00:18:21;6.60;;;2.72;;
55417;SDS011;41287;47.554;7.844;2023-10-08T00:20:47;6.30;;;3.03;;
55417;SDS011;41287;47.554;7.844;2023-10-08T00:23:32;6.18;;;3.28;;
55417;SDS011;41287;47.554;7.844;2023-10-08T00:26:00;7.65;;;3.13;;
55417;SDS011;41287;47.554;7.844;2023-10-08T00:28:29;6.28;;;3.08;;
55417;SDS011;41287;47.554;7.844;2023-10-08T00:30:56;6.15;;;2.95;;
55417;SDS011;41287;47.554;7.844;2023-10-08T00:33:30;6.07;;;3.20;;
55417;SDS011;41287;47.554;7.844;2023-10-08T00:35:56;5.85;;;2.75;;
55417;SDS011;41287;47.554;7.844;2023-10-08T00:38:21;6.53;;;3.08;;
55417;SDS011;41287;47.554;7.844;2023-10-08T00:40:49;7.03;;;3.20;;
55417;SDS011;41287;47.554;7.844;2023-10-08T00:43:32;5.55;;;3.00;;
55417;SDS011;41287;47.554;7.844;2023-10-08T00:46:00;7.07;;;3.17;;
55417;SDS011;41287;47.554;7.844;2023-10-08T00:48:29;4.90;;;2.40;;
55417;SDS011;41287;47.554;7.844;2023-10-08T00:51:01;6.05;;;3.08;;
55417;SDS011;41287;47.554;7.844;2023-10-08T00:53:46;6.43;;;3.13;;
55417;SDS011;41287;47.554;7.844;2023-10-08T00:56:14;7.65;;;2.83;;
55417;SDS011;41287;47.554;7.844;2023-10-08T00:58:44;5.95;;;2.70;;
55417;SDS011;41287;47.554;7.844;2023-10-08T01:01:14;5.45;;;2.80;;
55417;SDS011;41287;47.554;7.844;2023-10-08T01:03:42;5.85;;;2.92;;
55417;SDS011;41287;47.554;7.844;2023-10-08T01:06:10;7.18;;;3.03;;
55417;SDS011;41287;47.554;7.844;2023-10-08T01:08:36;6.25;;;2.92;;
55417;SDS011;41287;47.554;7.844;2023-10-08T01:11:21;4.60;;;2.33;;
55417;SDS011;41287;47.554;7.844;2023-10-08T01:13:58;5.15;;;3.13;;
55417;SDS011;41287;47.554;7.844;2023-10-08T01:16:24;4.05;;;2.47;;
55417;SDS011;41287;47.554;7.844;2023-10-08T01:18:53;4.32;;;2.58;;
55417;SDS011;41287;47.554;7.844;2023-10-08T01:21:19;5.65;;;2.97;;
55417;SDS011;41287;47.554;7.844;2023-10-08T01:24:05;5.82;;;2.60;;
55417;SDS011;41287;47.554;7.844;2023-10-08T01:26:35;5.15;;;2.72;;
55417;SDS011;41287;47.554;7.844;2023-10-08T01:29:04;5.60;;;3.00;;
55417;SDS011;41287;47.554;7.844;2023-10-08T01:31:36;4.93;;;2.72;;
55417;SDS011;41287;47.554;7.844;2023-10-08T01:34:03;7.13;;;3.45;;
55417;SDS011;41287;47.554;7.844;2023-10-08T01:36:31;5.10;;;2.65;;
55417;SDS011;41287;47.554;7.844;2023-10-08T01:38:56;5.97;;;2.60;;
55417;SDS011;41287;47.554;7.844;2023-10-08T01:41:23;5.20;;;2.50;;
55417;SDS011;41287;47.554;7.844;2023-10-08T01:43:58;5.45;;;2.67;;
55417;SDS011;41287;47.554;7.844;2023-10-08T01:46:24;4.93;;;2.67;;
55417;SDS011;41287;47.554;7.844;2023-10-08T01:48:51;6.10;;;2.88;;
55417;SDS011;41287;47.554;7.844;2023-10-08T01:51:29;5.22;;;2.75;;
55417;SDS011;41287;47.554;7.844;2023-10-08T01:54:02;4.88;;;2.58;;
55417;SDS011;41287;47.554;7.844;2023-10-08T01:56:29;4.47;;;2.35;;
55417;SDS011;41287;47.554;7.844;2023-10-08T01:58:55;5.30;;;2.80;;
55417;SDS011;41287;47.554;7.844;2023-10-08T02:01:22;4.57;;;2.75;;
55417;SDS011;41287;47.554;7.844;2023-10-08T02:03:47;5.65;;;2.85;;
55417;SDS011;41287;47.554;7.844;2023-10-08T02:06:13;5.22;;;2.67;;
55417;SDS011;41287;47.554;7.844;2023-10-08T02:08:38;4.13;;;2.65;;
55417;SDS011;41287;47.554;7.844;2023-10-08T02:11:04;5.03;;;2.78;;
55417;SDS011;41287;47.554;7.844;2023-10-08T02:13:29;5.00;;;2.55;;
55417;SDS011;41287;47.554;7.844;2023-10-08T02:15:55;5.13;;;2.72;;
55417;SDS011;41287;47.554;7.844;2023-10-08T02:18:21;4.75;;;2.65;;
55417;SDS011;41287;47.554;7.844;2023-10-08T02:20:48;5.38;;;2.70;;
55417;SDS011;41287;47.554;7.844;2023-10-08T02:23:17;5.20;;;2.45;;
55417;SDS011;41287;47.554;7.844;2023-10-08T02:25:43;4.63;;;2.53;;
55417;SDS011;41287;47.554;7.844;2023-10-08T02:28:09;4.60;;;2.65;;
55417;SDS011;41287;47.554;7.844;2023-10-08T02:30:40;4.22;;;2.28;;
55417;SDS011;41287;47.554;7.844;2023-10-08T02:33:06;5.60;;;2.65;;
55417;SDS011;41287;47.554;7.844;2023-10-08T02:35:44;4.53;;;2.35;;
55417;SDS011;41287;47.554;7.844;2023-10-08T02:38:10;6.60;;;2.65;;
55417;SDS011;41287;47.554;7.844;2023-10-08T02:40:41;5.03;;;2.47;;
55417;SDS011;41287;47.554;7.844;2023-10-08T02:43:21;5.07;;;2.50;;
55417;SDS011;41287;47.554;7.844;2023-10-08T02:45:47;5.57;;;2.88;;
55417;SDS011;41287;47.554;7.844;2023-10-08T02:48:14;5.95;;;2.72;;
55417;SDS011;41287;47.554;7.844;2023-10-08T02:50:40;4.97;;;2.50;;
55417;SDS011;41287;47.554;7.844;2023-10-08T02:53:06;5.80;;;2.60;;
55417;SDS011;41287;47.554;7.844;2023-10-08T02:55:43;6.22;;;2.60;;
55417;SDS011;41287;47.554;7.844;2023-10-08T02:58:11;5.00;;;2.60;;
55417;SDS011;41287;47.554;7.844;2023-10-08T03:00:43;5.05;;;2.35;;
55417;SDS011;41287;47.554;7.844;2023-10-08T03:03:12;5.43;;;2.67;;
55417;SDS011;41287;47.554;7.844;2023-10-08T03:05:50;4.32;;;2.40;;
55417;SDS011;41287;47.554;7.844;2023-10-08T03:08:17;6.45;;;2.63;;
55417;SDS011;41287;47.554;7.844;2023-10-08T03:10:47;6.38;;;2.85;;
55417;SDS011;41287;47.554;7.844;2023-10-08T03:13:23;5.72;;;2.92;;
55417;SDS011;41287;47.554;7.844;2023-10-08T03:15:51;5.13;;;2.88;;
55417;SDS011;41287;47.554;7.844;2023-10-08T03:18:25;5.00;;;2.38;;
55417;SDS011;41287;47.554;7.844;2023-10-08T03:20:50;4.57;;;2.60;;
55417;SDS011;41287;47.554;7.844;2023-10-08T03:23:16;5.57;;;2.35;;
55417;SDS011;41287;47.554;7.844;2023-10-08T03:25:52;4.95;;;2.38;;
55417;SDS011;41287;47.554;7.844;2023-10-08T03:28:26;3.25;;;2.13;;
55417;SDS011;41287;47.554;7.844;2023-10-08T03:30:53;4.63;;;2.33;;
55417;SDS011;41287;47.554;7.844;2023-10-08T03:33:29;5.30;;;2.78;;
55417;SDS011;41287;47.554;7.844;2023-10-08T03:35:59;5.32;;;2.38;;
55417;SDS011;41287;47.554;7.844;2023-10-08T03:38:30;5.47;;;2.97;;
55417;SDS011;41287;47.554;7.844;2023-10-08T03:41:09;5.15;;;2.25;;
55417;SDS011;41287;47.554;7.844;2023-10-08T03:43:41;5.10;;;2.28;;
55417;SDS011;41287;47.554;7.844;2023-10-08T03:46:25;6.10;;;2.58;;
55417;SDS011;41287;47.554;7.844;2023-10-08T03:48:52;7.53;;;2.35;;
55417;SDS011;41287;47.554;7.844;2023-10-08T03:51:18;4.82;;;2.67;;
55417;SDS011;41287;47.554;7.844;2023-10-08T03:53:46;5.28;;;2.60;;
55417;SDS011;41287;47.554;7.844;2023-10-08T03:56:27;4.40;;;2.40;;
55417;SDS011;41287;47.554;7.844;2023-10-08T03:58:56;3.90;;;2.03;;
55417;SDS011;41287;47.554;7.844;2023-10-08T04:01:25;3.80;;;2.30;;
55417;SDS011;41287;47.554;7.844;2023-10-08T04:03:55;4.00;;;2.00;;
55417;SDS011;41287;47.554;7.844;2023-10-08T04:06:26;4.07;;;2.10;;
55417;SDS011;41287;47.554;7.844;2023-10-08T04:09:01;3.90;;;2.35;;
55417;SDS011;41287;47.554;7.844;2023-10-08T04:11:37;4.85;;;2.60;;
55417;SDS011;41287;47.554;7.844;2023-10-08T04:14:12;4.72;;;2.40;;
55417;SDS011;41287;47.554;7.844;2023-10-08T04:16:37;5.80;;;2.35;;
55417;SDS011;41287;47.554;7.844;2023-10-08T04:19:05;4.60;;;2.72;;
55417;SDS011;41287;47.554;7.844;2023-10-08T04:21:30;4.45;;;2.40;;
55417;SDS011;41287;47.554;7.844;2023-10-08T04:23:59;5.43;;;2.42;;
55417;SDS011;41287;47.554;7.844;2023-10-08T04:26:28;5.75;;;3.00;;
55417;SDS011;41287;47.554;7.844;2023-10-08T04:28:54;3.78;;;2.08;;
55417;SDS011;41287;47.554;7.844;2023-10-08T04:34:03;5.45;;;2.50;;
55417;SDS011;41287;47.554;7.844;2023-10-08T04:36:36;4.63;;;2.13;;
55417;SDS011;41287;47.554;7.844;2023-10-08T04:39:06;4.60;;;2.35;;
55417;SDS011;41287;47.554;7.844;2023-10-08T04:41:39;6.05;;;2.80;;
55417;SDS011;41287;47.554;7.844;2023-10-08T04:44:07;4.13;;;2.22;;
55417;SDS011;41287;47.554;7.844;2023-10-08T04:46:39;4.38;;;2.08;;
55417;SDS011;41287;47.554;7.844;2023-10-08T04:49:12;4.53;;;2.37;;
55417;SDS011;41287;47.554;7.844;2023-10-08T04:51:56;5.25;;;2.45;;
55417;SDS011;41287;47.554;7.844;2023-10-08T04:54:26;4.60;;;2.15;;
55417;SDS011;41287;47.554;7.844;2023-10-08T04:57:00;4.32;;;2.25;;
55417;SDS011;41287;47.554;7.844;2023-10-08T04:59:29;5.28;;;2.60;;
55417;SDS011;41287;47.554;7.844;2023-10-08T05:02:02;4.20;;;1.90;;
55417;SDS011;41287;47.554;7.844;2023-10-08T05:04:46;3.47;;;1.90;;
55417;SDS011;41287;47.554;7.844;2023-10-08T05:07:32;4.63;;;2.28;;
55417;SDS011;41287;47.554;7.844;2023-10-08T05:10:12;4.78;;;2.55;;
55417;SDS011;41287;47.554;7.844;2023-10-08T05:12:51;4.70;;;2.35;;
55417;SDS011;41287;47.554;7.844;2023-10-08T05:15:30;4.20;;;2.08;;
55417;SDS011;41287;47.554;7.844;2023-10-08T05:18:02;3.95;;;2.22;;
55417;SDS011;41287;47.554;7.844;2023-10-08T05:20:39;4.63;;;2.47;;
55417;SDS011;41287;47.554;7.844;2023-10-08T05:23:14;4.75;;;1.92;;
55417;SDS011;41287;47.554;7.844;2023-10-08T05:25:50;3.92;;;2.20;;
55417;SDS011;41287;47.554;7.844;2023-10-08T05:28:23;5.53;;;2.75;;
55417;SDS011;41287;47.554;7.844;2023-10-08T05:30:51;4.75;;;2.33;;
55417;SDS011;41287;47.554;7.844;2023-10-08T05:33:36;4.75;;;2.22;;
55417;SDS011;41287;47.554;7.844;2023-10-08T05:36:25;4.05;;;2.10;;
55417;SDS011;41287;47.554;7.844;2023-10-08T05:38:59;4.32;;;2.17;;
55417;SDS011;41287;47.554;7.844;2023-10-08T05:41:43;4.90;;;2.83;;
55417;SDS011;41287;47.554;7.844;2023-10-08T05:44:29;4.82;;;2.15;;
55417;SDS011;41287;47.554;7.844;2023-10-08T05:47:04;4.85;;;2.35;;
55417;SDS011;41287;47.554;7.844;2023-10-08T05:49:51;3.25;;;1.98;;
55417;SDS011;41287;47.554;7.844;2023-10-08T05:52:39;4.65;;;2.20;;
55417;SDS011;41287;47.554;7.844;2023-10-08T05:57:55;4.32;;;2.20;;
55417;SDS011;41287;47.554;7.844;2023-10-08T06:00:50;4.88;;;2.35;;
55417;SDS011;41287;47.554;7.844;2023-10-08T06:03:19;5.10;;;2.50;;
55417;SDS011;41287;47.554;7.844;2023-10-08T06:05:58;4.32;;;2.58;;
55417;SDS011;41287;47.554;7.844;2023-10-08T06:08:48;4.82;;;2.22;;
55417;SDS011;41287;47.554;7.844;2023-10-08T06:11:29;5.13;;;2.53;;
55417;SDS011;41287;47.554;7.844;2023-10-08T06:14:06;4.60;;;2.35;;
55417;SDS011;41287;47.554;7.844;2023-10-08T06:16:41;4.20;;;2.20;;
55417;SDS011;41287;47.554;7.844;2023-10-08T06:19:09;4.70;;;2.45;;
55417;SDS011;41287;47.554;7.844;2023-10-08T06:21:36;5.93;;;2.17;;
55417;SDS011;41287;47.554;7.844;2023-10-08T06:24:04;4.38;;;2.35;;
55417;SDS011;41287;47.554;7.844;2023-10-08T06:26:41;3.55;;;2.05;;
55417;SDS011;41287;47.554;7.844;2023-10-08T06:29:13;6.05;;;2.83;;
55417;SDS011;41287;47.554;7.844;2023-10-08T06:31:55;4.93;;;2.50;;
55417;SDS011;41287;47.554;7.844;2023-10-08T06:34:22;3.80;;;2.40;;
55417;SDS011;41287;47.554;7.844;2023-10-08T06:36:52;4.68;;;2.38;;
55417;SDS011;41287;47.554;7.844;2023-10-08T06:39:22;4.93;;;2.60;;
55417;SDS011;41287;47.554;7.844;2023-10-08T06:41:58;3.78;;;2.35;;
55417;SDS011;41287;47.554;7.844;2023-10-08T06:44:24;4.32;;;2.00;;
55417;SDS011;41287;47.554;7.844;2023-10-08T06:46:49;5.95;;;2.38;;
55417;SDS011;41287;47.554;7.844;2023-10-08T06:49:17;4.43;;;1.85;;
55417;SDS011;41287;47.554;7.844;2023-10-08T06:51:48;5.30;;;2.15;;
55417;SDS011;41287;47.554;7.844;2023-10-08T06:54:15;4.25;;;2.08;;
55417;SDS011;41287;47.554;7.844;2023-10-08T06:56:42;4.18;;;2.10;;
55417;SDS011;41287;47.554;7.844;2023-10-08T06:59:17;4.65;;;2.20;;
55417;SDS011;41287;47.554;7.844;2023-10-08T07:01:43;4.32;;;2.10;;
55417;SDS011;41287;47.554;7.844;2023-10-08T07:04:11;4.72;;;2.40;;
55417;SDS011;41287;47.554;7.844;2023-10-08T07:06:37;6.22;;;2.83;;
55417;SDS011;41287;47.554;7.844;2023-10-08T07:09:05;6.93;;;2.80;;
55417;SDS011;41287;47.554;7.844;2023-10-08T07:11:31;4.40;;;2.25;;
55417;SDS011;41287;47.554;7.844;2023-10-08T07:14:03;3.25;;;1.67;;
55417;SDS011;41287;47.554;7.844;2023-10-08T07:16:29;3.75;;;2.08;;
55417;SDS011;41287;47.554;7.844;2023-10-08T07:18:55;4.82;;;2.50;;
55417;SDS011;41287;47.554;7.844;2023-10-08T07:21:27;4.68;;;2.47;;
55417;SDS011;41287;47.554;7.844;2023-10-08T07:24:09;4.28;;;2.10;;
55417;SDS011;41287;47.554;7.844;2023-10-08T07:26:40;5.93;;;2.85;;
55417;SDS011;41287;47.554;7.844;2023-10-08T07:29:06;4.15;;;2.17;;
55417;SDS011;41287;47.554;7.844;2023-10-08T07:31:35;8.25;;;2.80;;
55417;SDS011;41287;47.554;7.844;2023-10-08T07:34:02;5.13;;;2.60;;
55417;SDS011;41287;47.554;7.844;2023-10-08T07:36:45;4.63;;;2.47;;
55417;SDS011;41287;47.554;7.844;2023-10-08T07:39:14;5.00;;;2.70;;
55417;SDS011;41287;47.554;7.844;2023-10-08T07:41:59;4.53;;;2.25;;
55417;SDS011;41287;47.554;7.844;2023-10-08T07:44:30;4.85;;;2.45;;
55417;SDS011;41287;47.554;7.844;2023-10-08T07:46:55;5.55;;;2.70;;
55417;SDS011;41287;47.554;7.844;2023-10-08T07:49:22;5.38;;;2.47;;
55417;SDS011;41287;47.554;7.844;2023-10-08T07:51:56;5.63;;;2.50;;
55417;SDS011;41287;47.554;7.844;2023-10-08T07:54:23;4.03;;;2.22;;
55417;SDS011;41287;47.554;7.844;2023-10-08T07:56:52;4.28;;;2.40;;
55417;SDS011;41287;47.554;7.844;2023-10-08T07:59:25;4.38;;;2.20;;
55417;SDS011;41287;47.554;7.844;2023-10-08T08:01:50;4.82;;;2.40;;
55417;SDS011;41287;47.554;7.844;2023-10-08T08:04:18;5.05;;;2.30;;
55417;SDS011;41287;47.554;7.844;2023-10-08T08:06:51;4.40;;;2.47;;
55417;SDS011;41287;47.554;7.844;2023-10-08T08:09:18;4.38;;;2.53;;
55417;SDS011;41287;47.554;7.844;2023-10-08T08:11:48;4.75;;;2.78;;
55417;SDS011;41287;47.554;7.844;2023-10-08T08:14:14;5.45;;;2.40;;
55417;SDS011;41287;47.554;7.844;2023-10-08T08:16:42;4.60;;;2.20;;
55417;SDS011;41287;47.554;7.844;2023-10-08T08:19:11;5.30;;;2.58;;
55417;SDS011;41287;47.554;7.844;2023-10-08T08:21:37;4.70;;;2.47;;
55417;SDS011;41287;47.554;7.844;2023-10-08T08:24:03;5.15;;;2.83;;
55417;SDS011;41287;47.554;7.844;2023-10-08T08:26:31;5.18;;;2.85;;
55417;SDS011;41287;47.554;7.844;2023-10-08T08:29:05;4.80;;;2.65;;
55417;SDS011;41287;47.554;7.844;2023-10-08T08:31:34;5.80;;;2.50;;
55417;SDS011;41287;47.554;7.844;2023-10-08T08:34:00;5.93;;;2.40;;
55417;SDS011;41287;47.554;7.844;2023-10-08T08:36:28;4.93;;;2.65;;
55417;SDS011;41287;47.554;7.844;2023-10-08T08:38:57;5.57;;;2.72;;
55417;SDS011;41287;47.554;7.844;2023-10-08T08:41:23;4.93;;;2.90;;
55417;SDS011;41287;47.554;7.844;2023-10-08T08:43:51;6.53;;;2.78;;
55417;SDS011;41287;47.554;7.844;2023-10-08T08:46:31;5.78;;;2.88;;
55417;SDS011;41287;47.554;7.844;2023-10-08T08:51:30;6.28;;;3.38;;
55417;SDS011;41287;47.554;7.844;2023-10-08T08:53:56;5.97;;;3.15;;
55417;SDS011;41287;47.554;7.844;2023-10-08T08:56:21;6.88;;;3.47;;
55417;SDS011;41287;47.554;7.844;2023-10-08T08:58:48;7.57;;;3.55;;
55417;SDS011;41287;47.554;7.844;2023-10-08T09:01:14;7.22;;;3.20;;
55417;SDS011;41287;47.554;7.844;2023-10-08T09:03:42;7.65;;;3.28;;
55417;SDS011;41287;47.554;7.844;2023-10-08T09:06:08;8.75;;;3.60;;
55417;SDS011;41287;47.554;7.844;2023-10-08T09:08:34;6.78;;;3.47;;
55417;SDS011;41287;47.554;7.844;2023-10-08T09:11:00;8.65;;;3.70;;
55417;SDS011;41287;47.554;7.844;2023-10-08T09:13:26;8.30;;;3.72;;
55417;SDS011;41287;47.554;7.844;2023-10-08T09:15:56;7.63;;;3.67;;
55417;SDS011;41287;47.554;7.844;2023-10-08T09:18:28;9.00;;;3.55;;
55417;SDS011;41287;47.554;7.844;2023-10-08T09:20:54;8.38;;;3.50;;
55417;SDS011;41287;47.554;7.844;2023-10-08T09:23:20;6.55;;;3.53;;
55417;SDS011;41287;47.554;7.844;2023-10-08T09:25:47;7.57;;;3.63;;
55417;SDS011;41287;47.554;7.844;2023-10-08T09:28:17;8.38;;;3.80;;
55417;SDS011;41287;47.554;7.844;2023-10-08T09:30:43;7.85;;;3.40;;
55417;SDS011;41287;47.554;7.844;2023-10-08T09:33:11;6.90;;;3.45;;
55417;SDS011;41287;47.554;7.844;2023-10-08T09:35:38;7.03;;;3.60;;
55417;SDS011;41287;47.554;7.844;2023-10-08T09:38:03;7.30;;;3.80;;
55417;SDS011;41287;47.554;7.844;2023-10-08T09:40:30;8.48;;;3.55;;
55417;SDS011;41287;47.554;7.844;2023-10-08T09:42:58;7.72;;;3.83;;
55417;SDS011;41287;47.554;7.844;2023-10-08T09:45:24;9.35;;;4.28;;
55417;SDS011;41287;47.554;7.844;2023-10-08T09:47:54;7.85;;;4.22;;
55417;SDS011;41287;47.554;7.844;2023-10-08T09:50:29;7.18;;;3.92;;
55417;SDS011;41287;47.554;7.844;2023-10-08T09:53:00;7.78;;;3.90;;
55417;SDS011;41287;47.554;7.844;2023-10-08T09:55:33;12.18;;;4.50;;
55417;SDS011;41287;47.554;7.844;2023-10-08T09:57:58;9.55;;;4.32;;
55417;SDS011;41287;47.554;7.844;2023-10-08T10:00:24;9.27;;;4.53;;
55417;SDS011;41287;47.554;7.844;2023-10-08T10:02:58;9.48;;;4.45;;
55417;SDS011;41287;47.554;7.844;2023-10-08T10:05:28;7.47;;;3.78;;
55417;SDS011;41287;47.554;7.844;2023-10-08T10:07:55;6.70;;;3.78;;
55417;SDS011;41287;47.554;7.844;2023-10-08T10:10:28;8.05;;;4.15;;
55417;SDS011;41287;47.554;7.844;2023-10-08T10:12:59;8.43;;;4.40;;
55417;SDS011;41287;47.554;7.844;2023-10-08T10:15:28;7.35;;;3.92;;
55417;SDS011;41287;47.554;7.844;2023-10-08T10:17:58;7.95;;;4.20;;
55417;SDS011;41287;47.554;7.844;2023-10-08T10:20:32;8.27;;;4.00;;
55417;SDS011;41287;47.554;7.844;2023-10-08T10:22:59;8.18;;;4.20;;
55417;SDS011;41287;47.554;7.844;2023-10-08T10:25:46;10.00;;;4.40;;
55417;SDS011;41287;47.554;7.844;2023-10-08T10:30:39;8.82;;;4.22;;
55417;SDS011;41287;47.554;7.844;2023-10-08T10:33:04;9.05;;;4.22;;
55417;SDS011;41287;47.554;7.844;2023-10-08T10:35:31;7.18;;;3.63;;
55417;SDS011;41287;47.554;7.844;2023-10-08T10:37:57;7.03;;;3.88;;
55417;SDS011;41287;47.554;7.844;2023-10-08T10:40:28;8.07;;;4.05;;
55417;SDS011;41287;47.554;7.844;2023-10-08T10:43:06;8.18;;;4.05;;
55417;SDS011;41287;47.554;7.844;2023-10-08T10:45:34;9.75;;;4.80;;
55417;SDS011;41287;47.554;7.844;2023-10-08T10:48:02;7.07;;;3.42;;
55417;SDS011;41287;47.554;7.844;2023-10-08T10:50:43;9.38;;;4.30;;
55417;SDS011;41287;47.554;7.844;2023-10-08T10:53:35;6.63;;;3.72;;
55417;SDS011;41287;47.554;7.844;2023-10-08T10:56:16;10.20;;;4.10;;
55417;SDS011;41287;47.554;7.844;2023-10-08T10:58:58;7.40;;;4.05;;
55417;SDS011;41287;47.554;7.844;2023-10-08T11:01:26;9.55;;;3.95;;
55417;SDS011;41287;47.554;7.844;2023-10-08T11:04:09;10.27;;;3.97;;
55417;SDS011;41287;47.554;7.844;2023-10-08T11:06:40;12.00;;;4.45;;
55417;SDS011;41287;47.554;7.844;2023-10-08T11:09:09;10.68;;;4.32;;
55417;SDS011;41287;47.554;7.844;2023-10-08T11:11:40;10.18;;;4.28;;
55417;SDS011;41287;47.554;7.844;2023-10-08T11:14:10;8.30;;;3.92;;
55417;SDS011;41287;47.554;7.844;2023-10-08T11:16:43;7.97;;;3.60;;
55417;SDS011;41287;47.554;7.844;2023-10-08T11:19:10;9.75;;;4.10;;
55417;SDS011;41287;47.554;7.844;2023-10-08T11:21:49;8.05;;;3.88;;
55417;SDS011;41287;47.554;7.844;2023-10-08T11:24:26;10.57;;;4.43;;
55417;SDS011;41287;47.554;7.844;2023-10-08T11:26:53;9.95;;;4.53;;
55417;SDS011;41287;47.554;7.844;2023-10-08T11:29:37;7.00;;;4.13;;
55417;SDS011;41287;47.554;7.844;2023-10-08T11:32:03;11.77;;;4.93;;
55417;SDS011;41287;47.554;7.844;2023-10-08T11:34:32;10.05;;;4.13;;
55417;SDS011;41287;47.554;7.844;2023-10-08T11:37:03;9.93;;;4.18;;
55417;SDS011;41287;47.554;7.844;2023-10-08T11:39:38;11.35;;;4.60;;
55417;SDS011;41287;47.554;7.844;2023-10-08T11:42:10;10.52;;;4.72;;
55417;SDS011;41287;47.554;7.844;2023-10-08T11:44:54;9.05;;;5.00;;
55417;SDS011;41287;47.554;7.844;2023-10-08T11:47:20;10.93;;;4.47;;
55417;SDS011;41287;47.554;7.844;2023-10-08T11:49:46;9.52;;;4.72;;
55417;SDS011;41287;47.554;7.844;2023-10-08T11:52:19;11.55;;;4.82;;
55417;SDS011;41287;47.554;7.844;2023-10-08T11:54:46;8.45;;;3.72;;
55417;SDS011;41287;47.554;7.844;2023-10-08T11:57:13;10.40;;;4.38;;
55417;SDS011;41287;47.554;7.844;2023-10-08T11:59:39;9.45;;;4.28;;
55417;SDS011;41287;47.554;7.844;2023-10-08T12:02:08;9.00;;;4.38;;
55417;SDS011;41287;47.554;7.844;2023-10-08T12:04:33;11.20;;;4.72;;
55417;SDS011;41287;47.554;7.844;2023-10-08T12:07:01;13.95;;;5.07;;
55417;SDS011;41287;47.554;7.844;2023-10-08T12:09:32;8.45;;;4.30;;
55417;SDS011;41287;47.554;7.844;2023-10-08T12:12:02;10.55;;;4.72;;
55417;SDS011;41287;47.554;7.844;2023-10-08T12:14:35;9.40;;;4.65;;
55417;SDS011;41287;47.554;7.844;2023-10-08T12:17:02;11.90;;;4.65;;
55417;SDS011;41287;47.554;7.844;2023-10-08T12:19:36;8.65;;;4.28;;
55417;SDS011;41287;47.554;7.844;2023-10-08T12:22:05;8.00;;;3.90;;
55417;SDS011;41287;47.554;7.844;2023-10-08T12:24:32;8.88;;;4.13;;
55417;SDS011;41287;47.554;7.844;2023-10-08T12:26:58;11.05;;;4.75;;
55417;SDS011;41287;47.554;7.844;2023-10-08T12:29:23;10.55;;;4.85;;
55417;SDS011;41287;47.554;7.844;2023-10-08T12:31:50;10.98;;;4.28;;
55417;SDS011;41287;47.554;7.844;2023-10-08T12:34:18;7.97;;;4.32;;
55417;SDS011;41287;47.554;7.844;2023-10-08T12:36:43;11.10;;;4.57;;
55417;SDS011;41287;47.554;7.844;2023-10-08T12:39:11;10.70;;;4.38;;
55417;SDS011;41287;47.554;7.844;2023-10-08T12:41:42;8.73;;;4.07;;
55417;SDS011;41287;47.554;7.844;2023-10-08T12:44:08;9.50;;;4.22;;
55417;SDS011;41287;47.554;7.844;2023-10-08T12:46:34;8.88;;;4.38;;
55417;SDS011;41287;47.554;7.844;2023-10-08T12:49:00;8.48;;;4.15;;
55417;SDS011;41287;47.554;7.844;2023-10-08T12:51:26;12.23;;;4.90;;
55417;SDS011;41287;47.554;7.844;2023-10-08T12:53:56;10.15;;;5.03;;
55417;SDS011;41287;47.554;7.844;2023-10-08T12:56:32;10.75;;;4.40;;
55417;SDS011;41287;47.554;7.844;2023-10-08T12:59:03;14.02;;;4.97;;
55417;SDS011;41287;47.554;7.844;2023-10-08T13:01:40;12.27;;;4.25;;
55417;SDS011;41287;47.554;7.844;2023-10-08T13:04:06;7.97;;;3.95;;
55417;SDS011;41287;47.554;7.844;2023-10-08T13:06:40;10.18;;;4.45;;
55417;SDS011;41287;47.554;7.844;2023-10-08T13:09:10;11.02;;;4.13;;
55417;SDS011;41287;47.554;7.844;2023-10-08T13:11:37;10.82;;;5.03;;
55417;SDS011;41287;47.554;7.844;2023-10-08T13:14:05;10.15;;;4.13;;
55417;SDS011;41287;47.554;7.844;2023-10-08T13:16:31;7.72;;;3.85;;
55417;SDS011;41287;47.554;7.844;2023-10-08T13:18:57;11.32;;;4.47;;
55417;SDS011;41287;47.554;7.844;2023-10-08T13:21:24;11.43;;;4.95;;
55417;SDS011;41287;47.554;7.844;2023-10-08T13:23:50;10.68;;;4.50;;
55417;SDS011;41287;47.554;7.844;2023-10-08T13:26:22;12.73;;;4.22;;
55417;SDS011;41287;47.554;7.844;2023-10-08T13:28:49;8.85;;;3.97;;
55417;SDS011;41287;47.554;7.844;2023-10-08T13:31:15;10.68;;;4.40;;
55417;SDS011;41287;47.554;7.844;2023-10-08T13:33:42;10.80;;;4.10;;
55417;SDS011;41287;47.554;7.844;2023-10-08T13:36:09;13.38;;;5.20;;
55417;SDS011;41287;47.554;7.844;2023-10-08T13:38:36;11.45;;;4.32;;
55417;SDS011;41287;47.554;7.844;2023-10-08T13:41:03;9.75;;;4.35;;
55417;SDS011;41287;47.554;7.844;2023-10-08T13:43:31;13.05;;;5.22;;
55417;SDS011;41287;47.554;7.844;2023-10-08T13:46:00;13.52;;;4.40;;
55417;SDS011;41287;47.554;7.844;2023-10-08T13:48:29;10.00;;;4.32;;
55417;SDS011;41287;47.554;7.844;2023-10-08T13:51:02;11.25;;;4.40;;
55417;SDS011;41287;47.554;7.844;2023-10-08T13:53:32;11.38;;;4.45;;
55417;SDS011;41287;47.554;7.844;2023-10-08T13:56:00;14.07;;;4.22;;
55417;SDS011;41287;47.554;7.844;2023-10-08T13:58:35;11.98;;;4.25;;
55417;SDS011;41287;47.554;7.844;2023-10-08T14:01:06;11.02;;;4.65;;
55417;SDS011;41287;47.554;7.844;2023-10-08T14:03:44;13.25;;;3.90;;
55417;SDS011;41287;47.554;7.844;2023-10-08T14:06:13;12.20;;;4.30;;
55417;SDS011;41287;47.554;7.844;2023-10-08T14:08:41;13.48;;;5.00;;
55417;SDS011;41287;47.554;7.844;2023-10-08T14:11:09;9.98;;;4.43;;
55417;SDS011;41287;47.554;7.844;2023-10-08T14:13:37;7.93;;;3.65;;
55417;SDS011;41287;47.554;7.844;2023-10-08T14:16:03;11.23;;;4.45;;
55417;SDS011;41287;47.554;7.844;2023-10-08T14:18:33;13.73;;;4.47;;
55417;SDS011;41287;47.554;7.844;2023-10-08T14:21:14;10.50;;;4.50;;
55417;SDS011;41287;47.554;7.844;2023-10-08T14:23:40;11.48;;;3.97;;
55417;SDS011;41287;47.554;7.844;2023-10-08T14:26:08;13.68;;;4.90;;
55417;SDS011;41287;47.554;7.844;2023-10-08T14:28:34;11.13;;;4.32;;
55417;SDS011;41287;47.554;7.844;2023-10-08T14:31:09;15.25;;;5.03;;
55417;SDS011;41287;47.554;7.844;2023-10-08T14:33:40;18.67;;;4.97;;
55417;SDS011;41287;47.554;7.844;2023-10-08T14:36:10;9.30;;;4.13;;
55417;SDS011;41287;47.554;7.844;2023-10-08T14:38:54;12.05;;;4.18;;
55417;SDS011;41287;47.554;7.844;2023-10-08T14:41:38;15.32;;;4.68;;
55417;SDS011;41287;47.554;7.844;2023-10-08T14:44:22;14.07;;;4.57;;
55417;SDS011;41287;47.554;7.844;2023-10-08T14:46:50;14.70;;;5.22;;
55417;SDS011;41287;47.554;7.844;2023-10-08T14:49:15;13.63;;;4.93;;
55417;SDS011;41287;47.554;7.844;2023-10-08T14:51:41;15.95;;;4.43;;
55417;SDS011;41287;47.554;7.844;2023-10-08T14:54:08;17.20;;;4.78;;
55417;SDS011;41287;47.554;7.844;2023-10-08T14:56:34;14.52;;;5.05;;
55417;SDS011;41287;47.554;7.844;2023-10-08T14:59:01;12.30;;;4.65;;
55417;SDS011;41287;47.554;7.844;2023-10-08T15:01:27;14.38;;;4.60;;
55417;SDS011;41287;47.554;7.844;2023-10-08T15:03:53;11.43;;;4.60;;
55417;SDS011;41287;47.554;7.844;2023-10-08T15:06:18;12.98;;;4.18;;
55417;SDS011;41287;47.554;7.844;2023-10-08T15:08:45;15.50;;;4.70;;
55417;SDS011;41287;47.554;7.844;2023-10-08T15:11:11;16.35;;;4.72;;
55417;SDS011;41287;47.554;7.844;2023-10-08T15:13:37;16.60;;;4.97;;
55417;SDS011;41287;47.554;7.844;2023-10-08T15:16:04;17.58;;;4.90;;